Main page
METAR-TAF:

METAR-TAF

Airports :

Spirit of St. Louis Airport

St. Louis, Missouri, United States

latitude: 38-39-26N, longitude: 090-39-21W, elevation: 462 ft

Current weather observation

The report was made 38 minutes ago, at 05:54 UTC
Calm wind
Temperature 72°F
Humidity 94%
Pressure 30.22 in. Hg
Visibility: 10 miles
Clear sky

METAR: KSUS 200554Z 00000KT 10SM CLR 22/21 A3022 RMK AO2 SLP224 T02220211 10278 20222 403280200 51006

Time: 01:32 (06:32 UTC)

Forecast

The report was made 1 hour and 12 minutes ago, at 05:20 UTC
Forecast valid from 20 at 06 UTC to 21 at 06 UTC
Wind 5 mph from variable directions
Visibility: 6 miles
Broken clouds at a height of 8000 ft
From 20 at 0800 UTC
Wind 0 mph from the North
Visibility: 6 miles
Scattered clouds at a height of 100 ft
mist
From 20 at 1200 UTC
Wind 7 mph from the South/Southeast
Visibility: 6 miles
Scattered clouds at a height of 25000 ft

TAF: KSUS 200520Z 2006/2106 VRB04KT P6SM BKN080 FM200800 00000KT 6SM BR SCT001 FM201200 15006KT P6SM SCT250

Weather observations and forecasts of more than 4000 airports (METAR and TAF reports).

The available stations are represented by yellow and red dots on the map.

Hover mouse over dot to see the name of the station.

Then click to see weather observations and forecasts.

To change the map : click on the green buttons with a black cross to zoom in, on the green button with a dash to zoom out, or on the green arrows for adjacent maps.


METAR-TAF: